sensor_id;sensor_type;location;lat;lon;timestamp;P1;durP1;ratioP1;P2;durP2;ratioP2
67352;SDS011;54238;52.278;21.056;2023-04-09T00:00:26;27.40;;;18.20;;
67352;SDS011;54238;52.278;21.056;2023-04-09T00:03:15;23.30;;;16.30;;
67352;SDS011;54238;52.278;21.056;2023-04-09T00:05:45;23.60;;;15.70;;
67352;SDS011;54238;52.278;21.056;2023-04-09T00:08:12;22.30;;;16.30;;
67352;SDS011;54238;52.278;21.056;2023-04-09T00:10:41;24.60;;;16.30;;
67352;SDS011;54238;52.278;21.056;2023-04-09T00:13:11;23.10;;;16.60;;
67352;SDS011;54238;52.278;21.056;2023-04-09T00:15:40;26.10;;;15.80;;
67352;SDS011;54238;52.278;21.056;2023-04-09T00:18:14;20.80;;;15.30;;
67352;SDS011;54238;52.278;21.056;2023-04-09T00:20:44;24.60;;;16.70;;
67352;SDS011;54238;52.278;21.056;2023-04-09T00:23:11;28.60;;;18.70;;
67352;SDS011;54238;52.278;21.056;2023-04-09T00:25:40;22.80;;;15.90;;
67352;SDS011;54238;52.278;21.056;2023-04-09T00:28:07;22.80;;;16.20;;
67352;SDS011;54238;52.278;21.056;2023-04-09T00:30:44;19.60;;;13.60;;
67352;SDS011;54238;52.278;21.056;2023-04-09T00:33:18;18.40;;;13.90;;
67352;SDS011;54238;52.278;21.056;2023-04-09T00:38:17;15.60;;;12.30;;
67352;SDS011;54238;52.278;21.056;2023-04-09T00:40:51;19.30;;;13.60;;
67352;SDS011;54238;52.278;21.056;2023-04-09T00:43:25;21.20;;;14.70;;
67352;SDS011;54238;52.278;21.056;2023-04-09T00:45:54;18.60;;;13.60;;
67352;SDS011;54238;52.278;21.056;2023-04-09T00:48:21;21.90;;;14.80;;
67352;SDS011;54238;52.278;21.056;2023-04-09T00:50:53;22.20;;;15.20;;
67352;SDS011;54238;52.278;21.056;2023-04-09T00:53:26;19.60;;;14.30;;
67352;SDS011;54238;52.278;21.056;2023-04-09T00:55:57;24.30;;;14.40;;
67352;SDS011;54238;52.278;21.056;2023-04-09T00:58:24;23.50;;;16.10;;
67352;SDS011;54238;52.278;21.056;2023-04-09T01:00:55;22.10;;;14.90;;
67352;SDS011;54238;52.278;21.056;2023-04-09T01:03:28;20.00;;;14.70;;
67352;SDS011;54238;52.278;21.056;2023-04-09T01:06:08;22.50;;;15.10;;
67352;SDS011;54238;52.278;21.056;2023-04-09T01:11:42;18.20;;;12.70;;
67352;SDS011;54238;52.278;21.056;2023-04-09T01:14:29;20.00;;;13.40;;
67352;SDS011;54238;52.278;21.056;2023-04-09T01:17:09;20.40;;;15.70;;
67352;SDS011;54238;52.278;21.056;2023-04-09T01:19:52;19.30;;;14.10;;
67352;SDS011;54238;52.278;21.056;2023-04-09T01:29:04;38.00;;;22.00;;
67352;SDS011;54238;52.278;21.056;2023-04-09T01:31:35;29.70;;;20.10;;
67352;SDS011;54238;52.278;21.056;2023-04-09T01:34:09;27.00;;;18.40;;
67352;SDS011;54238;52.278;21.056;2023-04-09T01:36:54;23.50;;;16.30;;
67352;SDS011;54238;52.278;21.056;2023-04-09T01:39:26;26.00;;;17.00;;
67352;SDS011;54238;52.278;21.056;2023-04-09T01:41:58;23.40;;;15.10;;
67352;SDS011;54238;52.278;21.056;2023-04-09T01:44:30;23.20;;;15.60;;
67352;SDS011;54238;52.278;21.056;2023-04-09T01:47:03;21.30;;;14.90;;
67352;SDS011;54238;52.278;21.056;2023-04-09T01:49:37;27.50;;;16.90;;
67352;SDS011;54238;52.278;21.056;2023-04-09T01:52:09;20.60;;;14.70;;
67352;SDS011;54238;52.278;21.056;2023-04-09T01:54:44;20.90;;;15.50;;
67352;SDS011;54238;52.278;21.056;2023-04-09T01:57:11;23.10;;;15.30;;
67352;SDS011;54238;52.278;21.056;2023-04-09T01:59:38;21.50;;;14.10;;
67352;SDS011;54238;52.278;21.056;2023-04-09T02:02:11;19.60;;;14.70;;
67352;SDS011;54238;52.278;21.056;2023-04-09T02:04:49;22.80;;;14.60;;
67352;SDS011;54238;52.278;21.056;2023-04-09T02:07:43;24.60;;;16.40;;
67352;SDS011;54238;52.278;21.056;2023-04-09T02:10:14;22.10;;;14.60;;
67352;SDS011;54238;52.278;21.056;2023-04-09T02:12:47;21.20;;;15.20;;
67352;SDS011;54238;52.278;21.056;2023-04-09T02:15:24;20.90;;;15.00;;
67352;SDS011;54238;52.278;21.056;2023-04-09T02:18:01;23.30;;;15.10;;
67352;SDS011;54238;52.278;21.056;2023-04-09T02:23:03;21.30;;;13.20;;
67352;SDS011;54238;52.278;21.056;2023-04-09T02:25:30;28.80;;;15.30;;
67352;SDS011;54238;52.278;21.056;2023-04-09T02:28:02;21.50;;;13.70;;
67352;SDS011;54238;52.278;21.056;2023-04-09T02:30:33;22.40;;;14.50;;
67352;SDS011;54238;52.278;21.056;2023-04-09T02:33:02;19.30;;;14.10;;
67352;SDS011;54238;52.278;21.056;2023-04-09T02:35:32;22.60;;;15.40;;
67352;SDS011;54238;52.278;21.056;2023-04-09T02:38:02;20.80;;;13.70;;
67352;SDS011;54238;52.278;21.056;2023-04-09T02:40:34;18.70;;;14.00;;
67352;SDS011;54238;52.278;21.056;2023-04-09T02:43:03;21.40;;;15.10;;
67352;SDS011;54238;52.278;21.056;2023-04-09T02:45:32;21.90;;;14.40;;
67352;SDS011;54238;52.278;21.056;2023-04-09T02:48:01;21.40;;;15.50;;
67352;SDS011;54238;52.278;21.056;2023-04-09T02:50:28;20.60;;;14.70;;
67352;SDS011;54238;52.278;21.056;2023-04-09T02:52:59;21.10;;;14.50;;
67352;SDS011;54238;52.278;21.056;2023-04-09T02:55:26;19.40;;;13.90;;
67352;SDS011;54238;52.278;21.056;2023-04-09T02:57:55;19.90;;;14.60;;
67352;SDS011;54238;52.278;21.056;2023-04-09T03:00:22;23.30;;;15.70;;
67352;SDS011;54238;52.278;21.056;2023-04-09T03:02:57;21.60;;;14.60;;
67352;SDS011;54238;52.278;21.056;2023-04-09T03:05:29;19.70;;;15.50;;
67352;SDS011;54238;52.278;21.056;2023-04-09T03:08:06;20.70;;;15.80;;
67352;SDS011;54238;52.278;21.056;2023-04-09T03:10:33;23.50;;;16.60;;
67352;SDS011;54238;52.278;21.056;2023-04-09T03:16:03;20.70;;;14.40;;
67352;SDS011;54238;52.278;21.056;2023-04-09T03:21:05;18.40;;;13.40;;
67352;SDS011;54238;52.278;21.056;2023-04-09T03:23:33;20.90;;;14.10;;
67352;SDS011;54238;52.278;21.056;2023-04-09T03:26:04;19.80;;;12.60;;
67352;SDS011;54238;52.278;21.056;2023-04-09T03:28:34;18.80;;;13.40;;
67352;SDS011;54238;52.278;21.056;2023-04-09T03:31:01;21.30;;;14.90;;
67352;SDS011;54238;52.278;21.056;2023-04-09T03:33:31;20.40;;;15.00;;
67352;SDS011;54238;52.278;21.056;2023-04-09T03:35:59;18.00;;;14.10;;
67352;SDS011;54238;52.278;21.056;2023-04-09T03:38:30;20.50;;;15.00;;
67352;SDS011;54238;52.278;21.056;2023-04-09T03:41:05;20.20;;;13.10;;
67352;SDS011;54238;52.278;21.056;2023-04-09T03:43:33;22.00;;;14.40;;
67352;SDS011;54238;52.278;21.056;2023-04-09T03:46:00;20.10;;;13.20;;
67352;SDS011;54238;52.278;21.056;2023-04-09T03:48:27;19.50;;;13.50;;
67352;SDS011;54238;52.278;21.056;2023-04-09T03:50:57;19.50;;;13.60;;
67352;SDS011;54238;52.278;21.056;2023-04-09T03:53:27;20.60;;;14.70;;
67352;SDS011;54238;52.278;21.056;2023-04-09T03:55:58;18.60;;;14.10;;
67352;SDS011;54238;52.278;21.056;2023-04-09T03:58:30;19.80;;;13.00;;
67352;SDS011;54238;52.278;21.056;2023-04-09T04:01:02;21.40;;;13.90;;
67352;SDS011;54238;52.278;21.056;2023-04-09T04:03:29;17.30;;;11.80;;
67352;SDS011;54238;52.278;21.056;2023-04-09T04:06:00;17.20;;;12.70;;
67352;SDS011;54238;52.278;21.056;2023-04-09T04:08:28;18.50;;;13.20;;
67352;SDS011;54238;52.278;21.056;2023-04-09T04:11:04;21.20;;;14.20;;
67352;SDS011;54238;52.278;21.056;2023-04-09T04:13:33;21.20;;;13.70;;
67352;SDS011;54238;52.278;21.056;2023-04-09T04:16:00;19.10;;;12.80;;
67352;SDS011;54238;52.278;21.056;2023-04-09T04:18:30;19.30;;;12.00;;
67352;SDS011;54238;52.278;21.056;2023-04-09T04:20:57;17.50;;;13.40;;
67352;SDS011;54238;52.278;21.056;2023-04-09T04:23:26;21.40;;;12.80;;
67352;SDS011;54238;52.278;21.056;2023-04-09T04:25:56;17.30;;;12.60;;
67352;SDS011;54238;52.278;21.056;2023-04-09T04:28:30;19.70;;;13.00;;
67352;SDS011;54238;52.278;21.056;2023-04-09T04:30:57;21.30;;;12.60;;
67352;SDS011;54238;52.278;21.056;2023-04-09T04:33:24;16.90;;;12.70;;
67352;SDS011;54238;52.278;21.056;2023-04-09T04:35:51;17.70;;;12.20;;
67352;SDS011;54238;52.278;21.056;2023-04-09T04:38:20;19.90;;;13.10;;
67352;SDS011;54238;52.278;21.056;2023-04-09T04:40:50;21.80;;;13.00;;
67352;SDS011;54238;52.278;21.056;2023-04-09T04:43:21;17.00;;;12.00;;
67352;SDS011;54238;52.278;21.056;2023-04-09T04:45:48;19.50;;;13.20;;
67352;SDS011;54238;52.278;21.056;2023-04-09T04:48:17;23.10;;;13.80;;
67352;SDS011;54238;52.278;21.056;2023-04-09T04:50:44;17.20;;;13.80;;
67352;SDS011;54238;52.278;21.056;2023-04-09T04:53:16;19.60;;;13.50;;
67352;SDS011;54238;52.278;21.056;2023-04-09T04:55:43;19.10;;;13.50;;
67352;SDS011;54238;52.278;21.056;2023-04-09T04:58:15;18.10;;;13.40;;
67352;SDS011;54238;52.278;21.056;2023-04-09T05:00:46;17.60;;;11.00;;
67352;SDS011;54238;52.278;21.056;2023-04-09T05:03:13;23.80;;;13.50;;
67352;SDS011;54238;52.278;21.056;2023-04-09T05:05:44;17.60;;;12.90;;
67352;SDS011;54238;52.278;21.056;2023-04-09T05:08:12;20.60;;;13.20;;
67352;SDS011;54238;52.278;21.056;2023-04-09T05:10:41;19.40;;;12.50;;
67352;SDS011;54238;52.278;21.056;2023-04-09T05:13:15;18.60;;;11.40;;
67352;SDS011;54238;52.278;21.056;2023-04-09T05:15:45;14.90;;;11.10;;
67352;SDS011;54238;52.278;21.056;2023-04-09T05:18:14;19.40;;;12.60;;
67352;SDS011;54238;52.278;21.056;2023-04-09T05:20:41;18.00;;;12.70;;
67352;SDS011;54238;52.278;21.056;2023-04-09T05:23:11;19.70;;;13.30;;
67352;SDS011;54238;52.278;21.056;2023-04-09T05:25:38;20.00;;;13.20;;
67352;SDS011;54238;52.278;21.056;2023-04-09T05:28:07;20.40;;;13.40;;
67352;SDS011;54238;52.278;21.056;2023-04-09T05:30:37;18.70;;;13.40;;
67352;SDS011;54238;52.278;21.056;2023-04-09T05:33:09;21.00;;;13.80;;
67352;SDS011;54238;52.278;21.056;2023-04-09T05:35:38;20.70;;;14.40;;
67352;SDS011;54238;52.278;21.056;2023-04-09T05:38:08;21.90;;;14.10;;
67352;SDS011;54238;52.278;21.056;2023-04-09T05:40:35;25.30;;;16.00;;
67352;SDS011;54238;52.278;21.056;2023-04-09T05:43:10;22.80;;;14.50;;
67352;SDS011;54238;52.278;21.056;2023-04-09T05:45:38;22.30;;;15.00;;
67352;SDS011;54238;52.278;21.056;2023-04-09T05:48:05;18.90;;;12.50;;
67352;SDS011;54238;52.278;21.056;2023-04-09T05:50:34;21.90;;;14.10;;
67352;SDS011;54238;52.278;21.056;2023-04-09T05:53:03;22.20;;;14.20;;
67352;SDS011;54238;52.278;21.056;2023-04-09T05:55:38;19.50;;;13.50;;
67352;SDS011;54238;52.278;21.056;2023-04-09T05:58:05;19.50;;;13.50;;
67352;SDS011;54238;52.278;21.056;2023-04-09T06:00:34;21.00;;;14.60;;
67352;SDS011;54238;52.278;21.056;2023-04-09T06:03:02;21.20;;;13.70;;
67352;SDS011;54238;52.278;21.056;2023-04-09T06:05:30;19.10;;;13.50;;
67352;SDS011;54238;52.278;21.056;2023-04-09T06:08:01;20.70;;;14.70;;
67352;SDS011;54238;52.278;21.056;2023-04-09T06:10:31;21.10;;;14.30;;
67352;SDS011;54238;52.278;21.056;2023-04-09T06:13:01;22.10;;;14.40;;
67352;SDS011;54238;52.278;21.056;2023-04-09T06:15:30;18.90;;;12.60;;
67352;SDS011;54238;52.278;21.056;2023-04-09T06:18:00;19.40;;;13.50;;
67352;SDS011;54238;52.278;21.056;2023-04-09T06:20:34;19.30;;;13.80;;
67352;SDS011;54238;52.278;21.056;2023-04-09T06:23:01;19.40;;;13.90;;
67352;SDS011;54238;52.278;21.056;2023-04-09T06:25:29;19.60;;;13.60;;
67352;SDS011;54238;52.278;21.056;2023-04-09T06:27:56;22.30;;;15.20;;
67352;SDS011;54238;52.278;21.056;2023-04-09T06:30:26;23.20;;;16.50;;
67352;SDS011;54238;52.278;21.056;2023-04-09T06:32:55;20.60;;;14.70;;
67352;SDS011;54238;52.278;21.056;2023-04-09T06:35:23;18.20;;;14.10;;
67352;SDS011;54238;52.278;21.056;2023-04-09T06:37:57;19.70;;;15.10;;
67352;SDS011;54238;52.278;21.056;2023-04-09T06:40:26;22.90;;;16.50;;
67352;SDS011;54238;52.278;21.056;2023-04-09T06:43:00;21.70;;;14.60;;
67352;SDS011;54238;52.278;21.056;2023-04-09T06:45:30;22.80;;;15.40;;
67352;SDS011;54238;52.278;21.056;2023-04-09T06:48:04;22.70;;;16.00;;
67352;SDS011;54238;52.278;21.056;2023-04-09T06:50:33;20.20;;;14.90;;
67352;SDS011;54238;52.278;21.056;2023-04-09T06:53:08;23.90;;;17.10;;
67352;SDS011;54238;52.278;21.056;2023-04-09T06:55:35;24.70;;;15.90;;
67352;SDS011;54238;52.278;21.056;2023-04-09T06:58:06;21.10;;;13.90;;
67352;SDS011;54238;52.278;21.056;2023-04-09T07:00:37;21.10;;;14.20;;
67352;SDS011;54238;52.278;21.056;2023-04-09T07:03:04;20.60;;;14.80;;
67352;SDS011;54238;52.278;21.056;2023-04-09T07:05:34;20.80;;;15.60;;
67352;SDS011;54238;52.278;21.056;2023-04-09T07:08:02;20.90;;;15.70;;
67352;SDS011;54238;52.278;21.056;2023-04-09T07:10:30;20.30;;;15.10;;
67352;SDS011;54238;52.278;21.056;2023-04-09T07:13:00;23.60;;;16.20;;
67352;SDS011;54238;52.278;21.056;2023-04-09T07:15:30;18.80;;;13.70;;
67352;SDS011;54238;52.278;21.056;2023-04-09T07:17:59;22.40;;;16.10;;
67352;SDS011;54238;52.278;21.056;2023-04-09T07:20:31;19.40;;;15.50;;
67352;SDS011;54238;52.278;21.056;2023-04-09T07:23:00;19.40;;;13.80;;
67352;SDS011;54238;52.278;21.056;2023-04-09T07:25:29;19.20;;;13.00;;
67352;SDS011;54238;52.278;21.056;2023-04-09T07:27:57;19.40;;;14.50;;
67352;SDS011;54238;52.278;21.056;2023-04-09T07:30:27;17.50;;;13.60;;
67352;SDS011;54238;52.278;21.056;2023-04-09T07:33:00;17.30;;;12.40;;
67352;SDS011;54238;52.278;21.056;2023-04-09T07:35:30;17.40;;;13.20;;
67352;SDS011;54238;52.278;21.056;2023-04-09T07:38:03;16.60;;;13.10;;
67352;SDS011;54238;52.278;21.056;2023-04-09T07:40:30;17.00;;;12.70;;
67352;SDS011;54238;52.278;21.056;2023-04-09T07:42:59;17.60;;;14.30;;
67352;SDS011;54238;52.278;21.056;2023-04-09T07:45:31;16.00;;;12.20;;
67352;SDS011;54238;52.278;21.056;2023-04-09T07:48:00;19.60;;;12.90;;
67352;SDS011;54238;52.278;21.056;2023-04-09T07:50:34;21.00;;;14.00;;
67352;SDS011;54238;52.278;21.056;2023-04-09T07:53:08;17.60;;;12.90;;
67352;SDS011;54238;52.278;21.056;2023-04-09T07:55:39;18.10;;;13.10;;
67352;SDS011;54238;52.278;21.056;2023-04-09T07:58:15;18.00;;;13.60;;
67352;SDS011;54238;52.278;21.056;2023-04-09T08:00:47;13.90;;;10.50;;
67352;SDS011;54238;52.278;21.056;2023-04-09T08:03:16;19.60;;;11.70;;
67352;SDS011;54238;52.278;21.056;2023-04-09T08:05:44;16.90;;;12.50;;
67352;SDS011;54238;52.278;21.056;2023-04-09T08:08:15;18.60;;;12.40;;
67352;SDS011;54238;52.278;21.056;2023-04-09T08:10:42;16.40;;;12.30;;
67352;SDS011;54238;52.278;21.056;2023-04-09T08:13:11;15.50;;;10.90;;
67352;SDS011;54238;52.278;21.056;2023-04-09T08:15:43;17.60;;;12.70;;
67352;SDS011;54238;52.278;21.056;2023-04-09T08:18:13;16.20;;;12.80;;
67352;SDS011;54238;52.278;21.056;2023-04-09T08:20:43;18.40;;;12.70;;
67352;SDS011;54238;52.278;21.056;2023-04-09T08:23:13;15.00;;;10.60;;
67352;SDS011;54238;52.278;21.056;2023-04-09T08:25:42;15.50;;;10.80;;
67352;SDS011;54238;52.278;21.056;2023-04-09T08:28:09;13.00;;;9.80;;
67352;SDS011;54238;52.278;21.056;2023-04-09T08:30:39;15.00;;;11.90;;
67352;SDS011;54238;52.278;21.056;2023-04-09T08:33:06;17.40;;;12.00;;
67352;SDS011;54238;52.278;21.056;2023-04-09T08:35:36;15.70;;;10.60;;
67352;SDS011;54238;52.278;21.056;2023-04-09T08:38:03;13.30;;;10.80;;
67352;SDS011;54238;52.278;21.056;2023-04-09T08:40:34;14.30;;;9.90;;
67352;SDS011;54238;52.278;21.056;2023-04-09T08:43:06;15.40;;;11.20;;
67352;SDS011;54238;52.278;21.056;2023-04-09T08:45:35;14.70;;;11.50;;
67352;SDS011;54238;52.278;21.056;2023-04-09T08:48:03;13.80;;;11.30;;
67352;SDS011;54238;52.278;21.056;2023-04-09T08:50:36;17.00;;;10.70;;
67352;SDS011;54238;52.278;21.056;2023-04-09T08:53:05;12.00;;;10.10;;
67352;SDS011;54238;52.278;21.056;2023-04-09T08:55:34;15.40;;;12.10;;
67352;SDS011;54238;52.278;21.056;2023-04-09T08:58:04;16.30;;;10.80;;
67352;SDS011;54238;52.278;21.056;2023-04-09T09:00:37;13.50;;;10.60;;
67352;SDS011;54238;52.278;21.056;2023-04-09T09:03:06;13.70;;;11.10;;
67352;SDS011;54238;52.278;21.056;2023-04-09T09:05:38;18.60;;;11.30;;
67352;SDS011;54238;52.278;21.056;2023-04-09T09:08:08;15.10;;;11.60;;
67352;SDS011;54238;52.278;21.056;2023-04-09T09:10:41;15.80;;;11.60;;
67352;SDS011;54238;52.278;21.056;2023-04-09T09:13:23;14.70;;;10.00;;
67352;SDS011;54238;52.278;21.056;2023-04-09T09:16:10;15.40;;;11.40;;
67352;SDS011;54238;52.278;21.056;2023-04-09T09:18:43;15.30;;;12.10;;
67352;SDS011;54238;52.278;21.056;2023-04-09T09:21:14;14.20;;;11.10;;
67352;SDS011;54238;52.278;21.056;2023-04-09T09:23:48;15.20;;;11.10;;
67352;SDS011;54238;52.278;21.056;2023-04-09T09:26:30;14.80;;;11.10;;
67352;SDS011;54238;52.278;21.056;2023-04-09T09:29:01;16.10;;;11.00;;
67352;SDS011;54238;52.278;21.056;2023-04-09T09:31:48;15.50;;;10.90;;
67352;SDS011;54238;52.278;21.056;2023-04-09T09:34:19;17.50;;;11.20;;
67352;SDS011;54238;52.278;21.056;2023-04-09T09:36:47;15.50;;;10.90;;
67352;SDS011;54238;52.278;21.056;2023-04-09T09:39:18;12.60;;;9.90;;
67352;SDS011;54238;52.278;21.056;2023-04-09T09:41:45;15.60;;;10.90;;
67352;SDS011;54238;52.278;21.056;2023-04-09T09:44:31;15.10;;;11.80;;
67352;SDS011;54238;52.278;21.056;2023-04-09T09:47:02;16.30;;;11.50;;
67352;SDS011;54238;52.278;21.056;2023-04-09T09:49:30;18.40;;;11.30;;
67352;SDS011;54238;52.278;21.056;2023-04-09T09:52:00;12.60;;;10.70;;
67352;SDS011;54238;52.278;21.056;2023-04-09T09:54:40;16.20;;;11.00;;
67352;SDS011;54238;52.278;21.056;2023-04-09T09:57:12;16.00;;;12.10;;
67352;SDS011;54238;52.278;21.056;2023-04-09T10:00:22;14.90;;;12.20;;
67352;SDS011;54238;52.278;21.056;2023-04-09T10:02:53;15.00;;;11.40;;
67352;SDS011;54238;52.278;21.056;2023-04-09T10:05:25;16.10;;;11.00;;
67352;SDS011;54238;52.278;21.056;2023-04-09T10:07:56;13.40;;;11.30;;
67352;SDS011;54238;52.278;21.056;2023-04-09T10:10:24;15.70;;;11.70;;
67352;SDS011;54238;52.278;21.056;2023-04-09T10:12:53;17.30;;;11.20;;
67352;SDS011;54238;52.278;21.056;2023-04-09T10:15:22;12.90;;;10.50;;
67352;SDS011;54238;52.278;21.056;2023-04-09T10:17:54;13.20;;;10.40;;
67352;SDS011;54238;52.278;21.056;2023-04-09T10:20:39;14.80;;;10.70;;
67352;SDS011;54238;52.278;21.056;2023-04-09T10:23:21;14.10;;;10.40;;
67352;SDS011;54238;52.278;21.056;2023-04-09T10:25:57;13.80;;;10.80;;
67352;SDS011;54238;52.278;21.056;2023-04-09T10:28:24;14.90;;;11.00;;
67352;SDS011;54238;52.278;21.056;2023-04-09T10:30:53;14.10;;;11.00;;
67352;SDS011;54238;52.278;21.056;2023-04-09T10:33:24;13.80;;;10.90;;
67352;SDS011;54238;52.278;21.056;2023-04-09T10:35:55;14.50;;;10.80;;
67352;SDS011;54238;52.278;21.056;2023-04-09T10:38:36;14.80;;;10.60;;
67352;SDS011;54238;52.278;21.056;2023-04-09T10:41:20;13.70;;;9.60;;
67352;SDS011;54238;52.278;21.056;2023-04-09T10:43:49;14.20;;;10.50;;
67352;SDS011;54238;52.278;21.056;2023-04-09T10:46:33;12.70;;;10.00;;
67352;SDS011;54238;52.278;21.056;2023-04-09T10:49:21;13.30;;;9.80;;
67352;SDS011;54238;52.278;21.056;2023-04-09T10:59:53;12.60;;;9.90;;
67352;SDS011;54238;52.278;21.056;2023-04-09T11:10:31;14.60;;;9.70;;
67352;SDS011;54238;52.278;21.056;2023-04-09T11:13:02;12.30;;;9.60;;
67352;SDS011;54238;52.278;21.056;2023-04-09T11:15:36;14.20;;;9.80;;
67352;SDS011;54238;52.278;21.056;2023-04-09T11:18:03;19.10;;;10.90;;
67352;SDS011;54238;52.278;21.056;2023-04-09T11:20:38;13.50;;;9.80;;
67352;SDS011;54238;52.278;21.056;2023-04-09T11:23:06;14.00;;;9.10;;
67352;SDS011;54238;52.278;21.056;2023-04-09T11:25:34;13.60;;;9.70;;
67352;SDS011;54238;52.278;21.056;2023-04-09T11:28:02;13.00;;;8.90;;
67352;SDS011;54238;52.278;21.056;2023-04-09T11:30:36;11.90;;;7.70;;
67352;SDS011;54238;52.278;21.056;2023-04-09T11:33:03;11.70;;;8.10;;
67352;SDS011;54238;52.278;21.056;2023-04-09T11:35:33;10.60;;;9.10;;
67352;SDS011;54238;52.278;21.056;2023-04-09T11:38:10;12.50;;;9.30;;
67352;SDS011;54238;52.278;21.056;2023-04-09T11:40:44;13.20;;;9.90;;
67352;SDS011;54238;52.278;21.056;2023-04-09T11:43:15;10.60;;;8.80;;
67352;SDS011;54238;52.278;21.056;2023-04-09T11:45:48;13.90;;;10.70;;
67352;SDS011;54238;52.278;21.056;2023-04-09T11:48:16;15.70;;;10.00;;
67352;SDS011;54238;52.278;21.056;2023-04-09T11:50:49;11.90;;;8.80;;
67352;SDS011;54238;52.278;21.056;2023-04-09T11:53:17;13.30;;;10.30;;
67352;SDS011;54238;52.278;21.056;2023-04-09T11:55:49;12.20;;;9.90;;
67352;SDS011;54238;52.278;21.056;2023-04-09T11:58:22;12.30;;;8.50;;
67352;SDS011;54238;52.278;21.056;2023-04-09T12:00:57;10.10;;;8.80;;
67352;SDS011;54238;52.278;21.056;2023-04-09T12:03:27;14.80;;;8.40;;
67352;SDS011;54238;52.278;21.056;2023-04-09T12:06:01;12.00;;;8.50;;
67352;SDS011;54238;52.278;21.056;2023-04-09T12:08:30;14.50;;;9.00;;
67352;SDS011;54238;52.278;21.056;2023-04-09T12:11:10;11.20;;;9.00;;
67352;SDS011;54238;52.278;21.056;2023-04-09T12:13:40;11.90;;;7.30;;
67352;SDS011;54238;52.278;21.056;2023-04-09T12:16:13;9.90;;;8.50;;
67352;SDS011;54238;52.278;21.056;2023-04-09T12:18:46;8.10;;;6.70;;
67352;SDS011;54238;52.278;21.056;2023-04-09T12:21:16;9.70;;;7.10;;
67352;SDS011;54238;52.278;21.056;2023-04-09T12:23:45;10.30;;;7.10;;
67352;SDS011;54238;52.278;21.056;2023-04-09T12:26:17;9.70;;;7.40;;
67352;SDS011;54238;52.278;21.056;2023-04-09T12:28:44;10.80;;;7.50;;
67352;SDS011;54238;52.278;21.056;2023-04-09T12:31:14;9.00;;;7.50;;
67352;SDS011;54238;52.278;21.056;2023-04-09T12:33:41;9.00;;;6.50;;
67352;SDS011;54238;52.278;21.056;2023-04-09T12:36:10;8.80;;;7.10;;
67352;SDS011;54238;52.278;21.056;2023-04-09T12:38:37;7.20;;;6.20;;
67352;SDS011;54238;52.278;21.056;2023-04-09T12:41:11;8.70;;;6.30;;
67352;SDS011;54238;52.278;21.056;2023-04-09T12:43:39;7.30;;;6.30;;
67352;SDS011;54238;52.278;21.056;2023-04-09T12:46:08;9.50;;;7.10;;
67352;SDS011;54238;52.278;21.056;2023-04-09T12:48:38;8.30;;;6.80;;
67352;SDS011;54238;52.278;21.056;2023-04-09T12:51:11;9.50;;;7.60;;
67352;SDS011;54238;52.278;21.056;2023-04-09T12:54:11;9.00;;;7.00;;
67352;SDS011;54238;52.278;21.056;2023-04-09T12:56:40;10.50;;;6.80;;
67352;SDS011;54238;52.278;21.056;2023-04-09T12:59:12;9.70;;;6.80;;
67352;SDS011;54238;52.278;21.056;2023-04-09T13:01:39;11.40;;;7.50;;
67352;SDS011;54238;52.278;21.056;2023-04-09T13:04:09;9.90;;;6.80;;
67352;SDS011;54238;52.278;21.056;2023-04-09T13:06:37;7.90;;;6.80;;
67352;SDS011;54238;52.278;21.056;2023-04-09T13:09:06;11.10;;;6.80;;
67352;SDS011;54238;52.278;21.056;2023-04-09T13:11:37;9.30;;;6.40;;
67352;SDS011;54238;52.278;21.056;2023-04-09T13:14:05;9.90;;;7.30;;
67352;SDS011;54238;52.278;21.056;2023-04-09T13:16:32;11.60;;;6.70;;
67352;SDS011;54238;52.278;21.056;2023-04-09T13:19:02;9.90;;;7.40;;
67352;SDS011;54238;52.278;21.056;2023-04-09T13:21:29;7.90;;;6.60;;
67352;SDS011;54238;52.278;21.056;2023-04-09T13:23:56;7.70;;;5.30;;
67352;SDS011;54238;52.278;21.056;2023-04-09T13:26:29;8.30;;;5.40;;
67352;SDS011;54238;52.278;21.056;2023-04-09T13:28:57;7.50;;;6.00;;
67352;SDS011;54238;52.278;21.056;2023-04-09T13:31:25;7.60;;;6.10;;
67352;SDS011;54238;52.278;21.056;2023-04-09T13:33:57;8.30;;;6.50;;
67352;SDS011;54238;52.278;21.056;2023-04-09T13:36:30;9.50;;;6.50;;
67352;SDS011;54238;52.278;21.056;2023-04-09T13:38:58;8.90;;;6.00;;
67352;SDS011;54238;52.278;21.056;2023-04-09T13:41:33;7.40;;;5.30;;
67352;SDS011;54238;52.278;21.056;2023-04-09T13:44:03;8.90;;;5.90;;
67352;SDS011;54238;52.278;21.056;2023-04-09T13:46:32;10.80;;;6.70;;
67352;SDS011;54238;52.278;21.056;2023-04-09T13:49:02;8.10;;;5.70;;
67352;SDS011;54238;52.278;21.056;2023-04-09T13:51:32;8.20;;;6.20;;
67352;SDS011;54238;52.278;21.056;2023-04-09T13:54:04;7.70;;;6.00;;
67352;SDS011;54238;52.278;21.056;2023-04-09T13:56:37;10.30;;;6.60;;
67352;SDS011;54238;52.278;21.056;2023-04-09T13:59:06;7.00;;;5.00;;
67352;SDS011;54238;52.278;21.056;2023-04-09T14:01:38;8.50;;;6.00;;
67352;SDS011;54238;52.278;21.056;2023-04-09T14:04:07;9.70;;;6.10;;
67352;SDS011;54238;52.278;21.056;2023-04-09T14:06:36;9.70;;;7.30;;
67352;SDS011;54238;52.278;21.056;2023-04-09T14:09:04;13.20;;;7.60;;
67352;SDS011;54238;52.278;21.056;2023-04-09T14:11:37;10.80;;;6.20;;
67352;SDS011;54238;52.278;21.056;2023-04-09T14:14:07;9.50;;;6.50;;
67352;SDS011;54238;52.278;21.056;2023-04-09T14:16:37;10.90;;;7.60;;
67352;SDS011;54238;52.278;21.056;2023-04-09T14:19:06;10.70;;;7.40;;
67352;SDS011;54238;52.278;21.056;2023-04-09T14:21:36;10.00;;;6.70;;
67352;SDS011;54238;52.278;21.056;2023-04-09T14:24:03;9.10;;;6.30;;
67352;SDS011;54238;52.278;21.056;2023-04-09T14:26:32;6.10;;;4.70;;
67352;SDS011;54238;52.278;21.056;2023-04-09T14:29:03;7.50;;;5.00;;
67352;SDS011;54238;52.278;21.056;2023-04-09T14:31:32;9.10;;;5.80;;
67352;SDS011;54238;52.278;21.056;2023-04-09T14:34:04;11.10;;;6.00;;
67352;SDS011;54238;52.278;21.056;2023-04-09T14:36:33;10.00;;;6.40;;
67352;SDS011;54238;52.278;21.056;2023-04-09T14:39:03;8.20;;;6.20;;
67352;SDS011;54238;52.278;21.056;2023-04-09T14:41:30;6.10;;;4.90;;
67352;SDS011;54238;52.278;21.056;2023-04-09T14:44:02;6.00;;;5.10;;
67352;SDS011;54238;52.278;21.056;2023-04-09T14:46:32;6.30;;;4.50;;
67352;SDS011;54238;52.278;21.056;2023-04-09T14:49:05;7.60;;;5.50;;
67352;SDS011;54238;52.278;21.056;2023-04-09T14:51:34;7.90;;;5.00;;
67352;SDS011;54238;52.278;21.056;2023-04-09T14:54:06;7.30;;;5.30;;
67352;SDS011;54238;52.278;21.056;2023-04-09T14:56:33;10.00;;;6.30;;
67352;SDS011;54238;52.278;21.056;2023-04-09T14:59:00;9.50;;;6.40;;
67352;SDS011;54238;52.278;21.056;2023-04-09T15:01:28;9.60;;;7.60;;
67352;SDS011;54238;52.278;21.056;2023-04-09T15:03:56;10.20;;;7.20;;
67352;SDS011;54238;52.278;21.056;2023-04-09T15:06:25;6.10;;;4.80;;
67352;SDS011;54238;52.278;21.056;2023-04-09T15:08:53;7.00;;;5.20;;
67352;SDS011;54238;52.278;21.056;2023-04-09T15:11:20;5.30;;;4.80;;